Time;durP1;ratioP1;P1;durP2;ratioP2;P2;SDS_P1;SDS_P2;PMS_P1;PMS_P2;Temp;Humidity;BMP_temperature;BMP_pressure;BME280_temperature;BME280_humidity;BME280_pressure;Samples;Min_cycle;Max_cycle;Signal;HPM_P1;HPM_P2
2023/12/11 00:00:28;;;;;;;12.00;3.67;;;10.30;99.90;;;;;;4990611;28;20431;-74
2023/12/11 00:02:55;;;;;;;7.90;3.10;;;10.30;99.90;;;;;;4991450;28;20225;-74
2023/12/11 00:05:20;;;;;;;8.27;3.60;;;10.30;99.90;;;;;;4974154;28;20179;-75
2023/12/11 00:07:46;;;;;;;11.37;2.80;;;10.30;99.90;;;;;;4989405;28;20951;-74
2023/12/11 00:10:12;;;;;;;8.63;3.80;;;10.30;99.90;;;;;;4989400;28;20179;-75
2023/12/11 00:12:37;;;;;;;14.30;2.60;;;10.30;99.90;;;;;;4989468;28;20183;-75
2023/12/11 00:15:03;;;;;;;9.33;3.50;;;10.30;99.90;;;;;;4988946;28;20187;-75
2023/12/11 00:17:29;;;;;;;9.07;3.87;;;10.30;99.90;;;;;;4989092;28;20211;-75
2023/12/11 00:19:55;;;;;;;11.13;2.87;;;10.30;99.90;;;;;;4989329;28;20507;-75
2023/12/11 00:22:21;;;;;;;8.30;2.80;;;10.30;99.90;;;;;;4990368;28;20229;-75
2023/12/11 00:24:47;;;;;;;11.77;3.60;;;10.30;99.90;;;;;;4987942;28;20183;-74
2023/12/11 00:27:12;;;;;;;12.87;3.20;;;10.30;99.90;;;;;;4990106;28;20944;-75
2023/12/11 00:29:38;;;;;;;11.90;2.87;;;10.20;99.90;;;;;;4989235;28;20184;-75
2023/12/11 00:32:05;;;;;;;11.30;3.00;;;10.20;99.90;;;;;;4988455;28;20619;-75
2023/12/11 00:34:31;;;;;;;9.23;3.30;;;10.20;99.90;;;;;;4988844;28;20426;-75
2023/12/11 00:36:57;;;;;;;8.57;3.20;;;10.20;99.90;;;;;;4987839;28;20546;-74
2023/12/11 00:39:22;;;;;;;9.10;3.70;;;10.20;99.90;;;;;;4986975;28;20933;-74
2023/12/11 00:41:48;;;;;;;11.63;4.87;;;10.30;99.90;;;;;;4987910;28;20209;-75
2023/12/11 00:44:14;;;;;;;12.77;3.30;;;10.30;99.90;;;;;;4989239;28;20190;-74
2023/12/11 00:46:40;;;;;;;10.17;2.70;;;10.20;99.90;;;;;;4987750;28;20230;-75
2023/12/11 00:49:06;;;;;;;12.07;3.50;;;10.20;99.90;;;;;;4989147;28;20521;-75
2023/12/11 00:51:31;;;;;;;11.87;3.80;;;10.20;99.90;;;;;;4989380;28;20563;-75
2023/12/11 00:53:57;;;;;;;8.80;3.07;;;10.10;99.90;;;;;;4988729;28;20190;-74
2023/12/11 00:56:23;;;;;;;8.90;2.60;;;10.20;99.90;;;;;;4988864;28;20227;-75
2023/12/11 00:58:48;;;;;;;13.30;3.80;;;10.20;99.90;;;;;;4987084;28;20624;-75
2023/12/11 01:01:14;;;;;;;13.53;3.50;;;10.20;99.90;;;;;;4989630;28;20191;-74
2023/12/11 01:03:40;;;;;;;14.53;3.70;;;10.20;99.90;;;;;;4987788;28;20184;-74
2023/12/11 01:06:06;;;;;;;13.80;4.50;;;10.20;99.90;;;;;;4988178;28;20691;-75
2023/12/11 01:08:33;;;;;;;12.50;3.47;;;10.20;99.90;;;;;;4988745;28;20274;-75
2023/12/11 01:10:59;;;;;;;14.27;3.50;;;10.20;99.90;;;;;;4989376;28;20437;-75
2023/12/11 01:13:25;;;;;;;14.33;3.37;;;10.20;99.90;;;;;;4989163;28;20415;-75
2023/12/11 01:15:51;;;;;;;16.70;3.30;;;10.20;99.90;;;;;;4988833;28;20207;-74
2023/12/11 01:18:17;;;;;;;17.27;5.13;;;10.20;99.90;;;;;;4988756;28;20438;-74
2023/12/11 01:20:43;;;;;;;12.67;3.37;;;10.20;99.90;;;;;;4986401;28;20228;-75
2023/12/11 01:23:09;;;;;;;12.37;3.63;;;10.20;99.90;;;;;;4989184;28;20422;-75
2023/12/11 01:25:34;;;;;;;11.57;4.47;;;10.20;99.90;;;;;;4987100;28;20219;-75
2023/12/11 01:28:00;;;;;;;12.27;3.50;;;10.20;99.90;;;;;;4987643;28;20427;-75
2023/12/11 01:30:26;;;;;;;13.20;3.87;;;10.20;99.90;;;;;;4988551;28;20195;-75
2023/12/11 01:32:51;;;;;;;18.80;3.70;;;10.20;99.90;;;;;;4988504;28;20417;-75
2023/12/11 01:35:17;;;;;;;15.40;4.27;;;10.20;99.90;;;;;;4989574;28;20288;-74
2023/12/11 01:37:43;;;;;;;15.90;4.10;;;10.20;99.90;;;;;;4987821;28;20676;-74
2023/12/11 01:40:10;;;;;;;24.00;5.07;;;10.20;99.90;;;;;;4989199;28;20202;-75
2023/12/11 01:42:36;;;;;;;11.73;3.70;;;10.20;99.90;;;;;;4985330;28;20512;-75
2023/12/11 01:45:02;;;;;;;13.63;3.90;;;10.20;99.90;;;;;;4989487;28;20465;-75
2023/12/11 01:47:28;;;;;;;14.17;4.10;;;10.20;99.90;;;;;;4987902;28;20210;-75
2023/12/11 01:49:53;;;;;;;20.23;4.30;;;10.20;99.90;;;;;;4988067;28;20211;-75
2023/12/11 01:52:21;;;;;;;16.83;4.27;;;10.20;99.90;;;;;;4989948;28;20461;-75
2023/12/11 01:54:47;;;;;;;13.83;3.53;;;10.20;99.90;;;;;;4991465;28;20190;-74
2023/12/11 01:57:13;;;;;;;18.43;5.73;;;10.20;99.90;;;;;;4991826;28;20470;-75
2023/12/11 01:59:39;;;;;;;11.87;4.17;;;10.20;99.90;;;;;;4989655;28;20861;-74
2023/12/11 02:02:05;;;;;;;14.20;4.03;;;10.20;99.90;;;;;;4990750;28;20767;-75
2023/12/11 02:04:31;;;;;;;12.63;4.03;;;10.20;99.90;;;;;;4991772;28;20495;-75
2023/12/11 02:06:57;;;;;;;16.60;3.73;;;10.20;99.90;;;;;;4990249;28;20258;-75
2023/12/11 02:09:26;;;;;;;14.60;3.63;;;10.20;99.90;;;;;;4991248;28;20419;-75
2023/12/11 02:11:52;;;;;;;11.70;3.90;;;10.20;99.90;;;;;;4990784;28;20438;-75
2023/12/11 02:14:18;;;;;;;9.33;2.90;;;10.20;99.90;;;;;;4991816;28;20426;-74
2023/12/11 02:16:43;;;;;;;10.23;3.63;;;10.20;99.90;;;;;;4991909;28;20285;-75
2023/12/11 02:19:09;;;;;;;19.77;3.93;;;10.20;99.90;;;;;;4992121;28;20206;-75
2023/12/11 02:21:35;;;;;;;17.93;4.80;;;10.20;99.90;;;;;;4989570;28;20548;-74
2023/12/11 02:24:15;;;;;;;19.10;3.50;;;10.20;99.90;;;;;;4991121;28;20187;-75
2023/12/11 02:26:41;;;;;;;14.33;3.67;;;10.20;99.90;;;;;;4990485;28;20458;-75
2023/12/11 02:29:07;;;;;;;14.67;3.33;;;10.30;99.90;;;;;;4991116;28;20951;-75
2023/12/11 02:31:32;;;;;;;10.17;3.50;;;10.20;99.90;;;;;;4989741;28;20461;-75
2023/12/11 02:33:58;;;;;;;11.60;3.60;;;10.20;99.90;;;;;;4992125;28;20183;-75
2023/12/11 02:36:24;;;;;;;12.90;4.00;;;10.20;99.90;;;;;;4991710;28;20211;-75
2023/12/11 02:38:49;;;;;;;15.67;3.73;;;10.20;99.90;;;;;;4991996;28;20179;-75
2023/12/11 02:41:15;;;;;;;17.67;3.37;;;10.30;99.90;;;;;;4990984;28;20266;-75
2023/12/11 02:43:41;;;;;;;12.83;3.60;;;10.20;99.90;;;;;;4990855;28;20186;-75
2023/12/11 02:46:07;;;;;;;11.93;3.50;;;10.20;99.90;;;;;;4990456;28;20256;-75
2023/12/11 02:48:32;;;;;;;18.37;4.50;;;10.20;99.90;;;;;;4995587;28;20449;-74
2023/12/11 02:50:58;;;;;;;16.43;4.50;;;10.20;99.90;;;;;;4995001;28;20266;-75
2023/12/11 02:53:24;;;;;;;16.90;3.60;;;10.20;99.90;;;;;;4995195;28;20732;-75
2023/12/11 02:55:50;;;;;;;14.07;3.70;;;10.20;99.90;;;;;;4994310;28;20467;-75
2023/12/11 02:58:15;;;;;;;11.27;3.60;;;10.20;99.90;;;;;;4994585;28;20206;-75
2023/12/11 03:00:41;;;;;;;10.90;3.47;;;10.20;99.90;;;;;;4993482;28;20328;-75
2023/12/11 03:03:10;;;;;;;10.73;4.60;;;10.20;99.90;;;;;;4994872;28;20634;-75
2023/12/11 03:05:36;;;;;;;15.97;3.50;;;10.20;99.90;;;;;;4995816;28;20631;-75
2023/12/11 03:08:05;;;;;;;15.80;3.80;;;10.20;99.90;;;;;;4994346;28;20434;-75
2023/12/11 03:10:31;;;;;;;14.87;3.93;;;10.20;99.90;;;;;;4976604;28;20441;-74
2023/12/11 03:12:57;;;;;;;15.53;4.50;;;10.20;99.90;;;;;;4994921;28;20655;-74
2023/12/11 03:15:23;;;;;;;18.27;3.33;;;10.20;99.90;;;;;;4995751;28;20480;-74
2023/12/11 03:17:49;;;;;;;16.70;4.00;;;10.20;99.90;;;;;;4994620;28;20215;-75
2023/12/11 03:20:15;;;;;;;15.10;3.77;;;10.20;99.90;;;;;;4995426;28;20218;-75
2023/12/11 03:22:40;;;;;;;15.87;4.30;;;10.20;99.90;;;;;;4995978;28;20200;-74
2023/12/11 03:25:06;;;;;;;19.17;3.83;;;10.10;99.90;;;;;;4995505;28;20202;-75
2023/12/11 03:27:32;;;;;;;18.60;4.63;;;10.10;99.90;;;;;;4995219;28;20180;-75
2023/12/11 03:29:58;;;;;;;16.27;4.37;;;10.10;99.90;;;;;;4995410;28;20435;-75
2023/12/11 03:32:24;;;;;;;19.43;3.80;;;10.20;99.90;;;;;;4996261;28;20853;-75
2023/12/11 03:34:49;;;;;;;15.30;4.70;;;10.10;99.90;;;;;;4994885;28;20195;-75
2023/12/11 03:37:15;;;;;;;13.60;4.33;;;10.20;99.90;;;;;;4993872;28;20752;-75
2023/12/11 03:39:43;;;;;;;10.83;3.33;;;10.10;99.90;;;;;;4995919;28;20184;-75
2023/12/11 03:42:09;;;;;;;17.93;3.97;;;10.10;99.90;;;;;;4993510;28;20184;-75
2023/12/11 03:44:35;;;;;;;15.17;4.23;;;10.10;99.90;;;;;;4996084;28;20499;-75
2023/12/11 03:47:01;;;;;;;19.40;3.50;;;10.10;99.90;;;;;;4993359;28;20221;-75
2023/12/11 03:49:27;;;;;;;14.43;2.60;;;10.10;99.90;;;;;;4996464;28;20929;-74
2023/12/11 03:51:53;;;;;;;9.73;2.63;;;10.20;99.90;;;;;;4994190;28;20567;-74
2023/12/11 03:54:19;;;;;;;12.33;3.40;;;10.20;99.90;;;;;;4993548;28;20783;-75
2023/12/11 03:56:45;;;;;;;11.50;3.07;;;10.10;99.90;;;;;;5007799;28;21176;-74
2023/12/11 03:59:11;;;;;;;8.70;1.97;;;10.10;99.90;;;;;;4994897;28;20453;-75
2023/12/11 04:01:37;;;;;;;7.13;2.33;;;10.10;99.90;;;;;;4995051;28;20442;-74
2023/12/11 04:04:03;;;;;;;12.83;2.57;;;10.10;99.90;;;;;;4995569;28;20944;-75
2023/12/11 04:06:29;;;;;;;8.20;2.83;;;10.10;99.90;;;;;;4995827;28;20641;-74
2023/12/11 04:08:55;;;;;;;14.93;2.93;;;10.10;99.90;;;;;;4995943;28;20434;-75
2023/12/11 04:11:21;;;;;;;13.97;2.90;;;10.10;99.90;;;;;;4995643;28;20419;-74
2023/12/11 04:13:46;;;;;;;9.77;2.80;;;10.10;99.90;;;;;;4995019;28;20183;-74
2023/12/11 04:16:12;;;;;;;9.53;2.30;;;10.10;99.90;;;;;;4993514;28;20677;-74
2023/12/11 04:18:38;;;;;;;9.37;3.37;;;10.10;99.90;;;;;;4996642;28;20297;-75
2023/12/11 04:21:05;;;;;;;14.67;4.27;;;10.10;99.90;;;;;;4995391;28;20441;-75
2023/12/11 04:23:30;;;;;;;18.10;4.00;;;10.10;99.90;;;;;;4996512;28;20492;-75
2023/12/11 04:26:00;;;;;;;13.07;4.57;;;10.10;99.90;;;;;;4979243;28;20426;-74
2023/12/11 04:28:26;;;;;;;13.53;3.70;;;10.10;99.90;;;;;;5092665;27;20195;-74
2023/12/11 04:30:51;;;;;;;14.77;4.73;;;10.10;99.90;;;;;;4995157;28;20767;-75
2023/12/11 04:33:17;;;;;;;12.77;3.30;;;10.10;99.90;;;;;;4994285;28;20451;-75
2023/12/11 04:35:44;;;;;;;13.50;4.90;;;10.10;99.90;;;;;;4996074;28;20756;-75
2023/12/11 04:38:10;;;;;;;20.00;4.30;;;10.10;99.90;;;;;;4995141;28;20446;-75
2023/12/11 04:40:36;;;;;;;11.20;2.97;;;10.20;99.90;;;;;;4980785;28;20437;-75
2023/12/11 04:43:02;;;;;;;13.80;3.90;;;10.20;99.90;;;;;;4995215;28;20418;-75
2023/12/11 04:45:28;;;;;;;15.03;3.43;;;10.20;99.90;;;;;;4996187;28;20188;-75
2023/12/11 04:47:53;;;;;;;11.57;3.10;;;10.20;99.90;;;;;;4995193;28;20963;-75
2023/12/11 04:50:19;;;;;;;8.77;2.20;;;10.10;99.90;;;;;;4993894;28;20198;-74
2023/12/11 04:52:45;;;;;;;8.03;1.80;;;10.20;99.90;;;;;;4996454;28;20214;-75
2023/12/11 04:55:11;;;;;;;7.63;1.83;;;10.10;99.90;;;;;;4994917;28;20192;-74
2023/12/11 04:57:37;;;;;;;6.67;2.20;;;10.20;99.90;;;;;;4997340;28;20389;-74
2023/12/11 05:00:04;;;;;;;11.97;2.63;;;10.10;99.90;;;;;;4994110;28;20932;-75
2023/12/11 05:02:30;;;;;;;9.63;2.53;;;10.10;99.90;;;;;;4996326;28;20191;-74
2023/12/11 05:04:56;;;;;;;8.43;2.20;;;10.10;99.90;;;;;;4996236;28;20479;-75
2023/12/11 05:07:21;;;;;;;11.73;3.07;;;10.10;99.90;;;;;;4996242;28;20929;-74
2023/12/11 05:09:47;;;;;;;14.53;2.80;;;10.10;99.90;;;;;;4995859;28;20464;-74
2023/12/11 05:12:13;;;;;;;8.73;4.00;;;10.10;99.90;;;;;;4994117;28;20244;-74
2023/12/11 05:14:39;;;;;;;15.07;3.53;;;10.10;99.90;;;;;;4997190;28;20180;-75
2023/12/11 05:17:04;;;;;;;10.60;3.40;;;10.10;99.90;;;;;;4993686;28;20210;-75
2023/12/11 05:19:30;;;;;;;8.10;2.73;;;10.10;99.90;;;;;;4995377;28;20196;-74
2023/12/11 05:21:58;;;;;;;8.20;2.80;;;10.00;99.90;;;;;;4995572;28;20283;-75
2023/12/11 05:24:25;;;;;;;12.13;3.97;;;10.10;99.90;;;;;;4994878;28;20180;-74
2023/12/11 05:26:51;;;;;;;7.20;2.80;;;10.00;99.90;;;;;;4998030;28;20952;-75
2023/12/11 05:29:16;;;;;;;5.00;1.90;;;10.00;99.90;;;;;;4999136;28;20467;-74
2023/12/11 05:31:42;;;;;;;5.30;2.30;;;9.90;99.90;;;;;;5000872;28;20916;-75
2023/12/11 05:34:08;;;;;;;7.57;2.23;;;9.90;99.90;;;;;;4990426;28;20188;-74
2023/12/11 05:36:34;;;;;;;10.90;2.60;;;9.90;99.90;;;;;;4988497;28;20223;-75
2023/12/11 05:39:00;;;;;;;6.43;1.90;;;9.90;99.90;;;;;;4991269;28;20219;-75
2023/12/11 05:41:26;;;;;;;6.30;2.17;;;9.90;99.90;;;;;;4991032;28;20526;-75
2023/12/11 05:43:51;;;;;;;14.37;2.60;;;9.80;99.90;;;;;;4991014;28;21001;-75
2023/12/11 05:46:17;;;;;;;8.93;3.00;;;9.80;99.90;;;;;;4992267;28;20296;-74
2023/12/11 05:48:43;;;;;;;6.93;2.07;;;9.80;99.90;;;;;;4991863;28;20266;-75
2023/12/11 05:51:09;;;;;;;10.57;2.30;;;9.80;99.90;;;;;;4989866;28;20557;-75
2023/12/11 05:53:34;;;;;;;4.87;2.13;;;9.80;99.90;;;;;;4992247;28;20645;-74
2023/12/11 05:56:00;;;;;;;7.97;2.70;;;9.80;99.90;;;;;;4996627;28;20257;-75
2023/12/11 05:58:26;;;;;;;8.77;2.50;;;9.80;99.90;;;;;;4999094;28;20240;-75
2023/12/11 06:00:52;;;;;;;7.80;2.40;;;9.80;99.90;;;;;;4995412;28;20688;-75
2023/12/11 06:03:17;;;;;;;8.37;2.50;;;9.80;99.90;;;;;;4996553;28;20605;-75
2023/12/11 06:05:43;;;;;;;7.27;2.80;;;9.70;99.90;;;;;;4998133;28;20709;-75
2023/12/11 06:08:09;;;;;;;8.17;2.80;;;9.80;99.90;;;;;;4996934;28;20266;-75
2023/12/11 06:10:34;;;;;;;14.27;3.43;;;9.80;99.90;;;;;;4999491;28;20187;-75
2023/12/11 06:13:00;;;;;;;12.70;2.90;;;9.80;99.90;;;;;;4998832;28;20223;-75
2023/12/11 06:15:26;;;;;;;11.70;3.77;;;9.80;99.90;;;;;;4999650;28;20195;-74
2023/12/11 06:17:51;;;;;;;12.13;3.20;;;9.80;99.90;;;;;;4997642;28;20649;-74
2023/12/11 06:20:17;;;;;;;12.10;2.80;;;9.80;99.90;;;;;;4995631;28;20192;-74
2023/12/11 06:22:46;;;;;;;9.50;3.27;;;9.80;99.90;;;;;;5001243;28;20398;-75
2023/12/11 06:25:12;;;;;;;15.23;3.20;;;9.80;99.90;;;;;;4998202;28;20245;-74
2023/12/11 06:27:38;;;;;;;7.50;2.50;;;9.90;99.90;;;;;;5001908;28;20427;-75
2023/12/11 06:30:06;;;;;;;5.00;2.20;;;9.90;99.90;;;;;;4990819;28;20706;-74
2023/12/11 06:32:32;;;;;;;8.90;3.67;;;9.90;99.90;;;;;;4993340;28;20204;-75
2023/12/11 06:34:57;;;;;;;10.07;2.70;;;9.90;99.90;;;;;;4998991;28;20449;-75
2023/12/11 06:37:24;;;;;;;13.30;3.47;;;9.90;99.90;;;;;;4999298;28;20226;-74
2023/12/11 06:39:50;;;;;;;12.57;2.90;;;9.90;99.90;;;;;;4999517;28;20434;-75
2023/12/11 06:42:15;;;;;;;11.57;2.80;;;9.90;99.90;;;;;;4998161;28;20764;-75
2023/12/11 06:44:41;;;;;;;10.03;3.00;;;9.90;99.90;;;;;;5001841;28;20263;-74
2023/12/11 06:47:07;;;;;;;10.00;3.17;;;9.90;99.90;;;;;;4993538;28;20188;-75
2023/12/11 06:49:33;;;;;;;10.23;2.40;;;9.90;99.90;;;;;;4989443;28;20184;-74
2023/12/11 06:51:58;;;;;;;12.03;3.30;;;9.90;99.90;;;;;;4990433;28;21105;-74
2023/12/11 06:54:24;;;;;;;13.97;2.90;;;10.00;99.90;;;;;;4988038;28;20196;-74
2023/12/11 06:56:50;;;;;;;10.77;2.53;;;9.90;99.90;;;;;;4995337;28;20826;-74
2023/12/11 06:59:15;;;;;;;12.97;2.80;;;9.90;99.90;;;;;;4998159;28;20270;-74
2023/12/11 07:01:41;;;;;;;14.20;3.03;;;9.90;99.90;;;;;;5002182;28;20184;-75
2023/12/11 07:04:07;;;;;;;12.83;3.30;;;9.90;99.90;;;;;;4993216;28;20191;-75
2023/12/11 07:06:33;;;;;;;10.27;2.60;;;9.90;99.90;;;;;;4989601;28;20195;-74
2023/12/11 07:08:58;;;;;;;8.90;2.37;;;10.00;99.90;;;;;;4988407;28;20188;-74
2023/12/11 07:11:24;;;;;;;11.93;3.10;;;9.90;99.90;;;;;;4980288;28;20431;-74
2023/12/11 07:13:50;;;;;;;8.07;2.67;;;9.90;99.90;;;;;;4993045;28;20190;-74
2023/12/11 07:16:16;;;;;;;9.20;3.77;;;9.90;99.90;;;;;;4991029;28;20223;-74
2023/12/11 07:18:44;;;;;;;8.23;3.17;;;9.90;99.90;;;;;;4990717;28;20424;-74
2023/12/11 07:21:10;;;;;;;11.80;3.80;;;9.90;99.90;;;;;;4988907;28;20641;-74
2023/12/11 07:23:36;;;;;;;11.17;3.70;;;10.00;99.90;;;;;;4985359;28;20427;-75
2023/12/11 07:26:06;;;;;;;11.87;3.17;;;9.90;99.90;;;;;;4988644;28;20890;-74
2023/12/11 07:28:31;;;;;;;11.67;2.50;;;9.90;99.90;;;;;;4989259;28;20489;-75
2023/12/11 07:30:58;;;;;;;7.70;3.03;;;10.00;99.90;;;;;;4992285;28;20760;-75
2023/12/11 07:33:24;;;;;;;13.50;3.20;;;9.90;99.90;;;;;;4985439;28;20241;-73
2023/12/11 07:35:50;;;;;;;9.73;3.00;;;10.00;99.90;;;;;;4986933;28;20527;-72
2023/12/11 07:38:16;;;;;;;11.60;2.63;;;10.00;99.90;;;;;;4987362;28;20438;-75
2023/12/11 07:40:42;;;;;;;9.67;3.30;;;10.00;99.90;;;;;;4991084;28;20222;-73
2023/12/11 07:43:08;;;;;;;9.80;3.27;;;9.90;99.90;;;;;;4991317;28;20427;-73
2023/12/11 07:45:34;;;;;;;11.67;3.40;;;9.90;99.90;;;;;;4991251;28;20192;-73
2023/12/11 07:48:00;;;;;;;8.80;3.20;;;9.90;99.90;;;;;;4990749;28;20260;-73
2023/12/11 07:50:26;;;;;;;9.83;3.10;;;10.00;99.90;;;;;;4991713;28;20528;-73
2023/12/11 07:52:52;;;;;;;10.90;3.13;;;9.90;99.90;;;;;;4975950;28;20971;-73
2023/12/11 07:55:18;;;;;;;12.13;3.40;;;10.00;99.90;;;;;;4991566;28;20234;-73
2023/12/11 07:57:44;;;;;;;10.27;3.10;;;10.00;99.90;;;;;;4993077;28;20829;-73
2023/12/11 08:00:10;;;;;;;8.80;2.33;;;9.90;99.90;;;;;;4992072;28;20186;-73
2023/12/11 08:02:36;;;;;;;9.77;2.50;;;9.90;99.90;;;;;;4992009;28;20195;-73
2023/12/11 08:05:02;;;;;;;9.27;3.07;;;9.90;99.90;;;;;;4991323;28;20936;-73
2023/12/11 08:07:28;;;;;;;8.60;3.10;;;10.00;99.90;;;;;;4992002;28;20427;-73
2023/12/11 08:09:54;;;;;;;12.83;3.57;;;9.90;99.90;;;;;;4992377;28;20434;-73
2023/12/11 08:12:19;;;;;;;6.97;2.60;;;9.90;99.90;;;;;;4991674;28;20252;-73
2023/12/11 08:14:45;;;;;;;11.93;2.97;;;9.90;99.90;;;;;;4992323;28;20657;-73
2023/12/11 08:17:11;;;;;;;15.77;2.63;;;9.80;99.90;;;;;;4991368;28;20215;-74
2023/12/11 08:19:37;;;;;;;13.43;2.90;;;9.90;99.90;;;;;;4993216;28;20805;-72
2023/12/11 08:22:04;;;;;;;16.93;3.20;;;9.90;99.90;;;;;;4991926;28;20183;-73
2023/12/11 08:24:30;;;;;;;8.87;2.50;;;9.90;99.90;;;;;;4992032;28;21880;-73
2023/12/11 08:26:56;;;;;;;9.87;2.27;;;9.90;99.90;;;;;;4990955;28;20435;-73
2023/12/11 08:29:21;;;;;;;13.90;3.43;;;9.80;99.90;;;;;;4992570;28;20573;-73
2023/12/11 08:31:47;;;;;;;11.40;3.03;;;9.80;99.90;;;;;;4992574;28;20595;-73
2023/12/11 08:34:13;;;;;;;8.53;2.80;;;9.80;99.90;;;;;;4991474;28;20594;-73
2023/12/11 08:36:39;;;;;;;8.90;2.83;;;9.90;99.90;;;;;;4992724;28;21351;-73
2023/12/11 08:39:04;;;;;;;6.77;3.00;;;9.80;99.90;;;;;;4991089;28;20191;-73
2023/12/11 08:41:30;;;;;;;8.33;2.30;;;9.90;99.90;;;;;;4991669;28;20223;-73
2023/12/11 08:43:56;;;;;;;9.90;3.30;;;9.90;99.90;;;;;;4992632;28;20187;-73
2023/12/11 08:46:22;;;;;;;9.70;2.43;;;9.90;99.90;;;;;;4990729;28;20426;-73
2023/12/11 08:48:48;;;;;;;14.90;3.40;;;9.90;99.90;;;;;;4991432;28;20184;-73
2023/12/11 08:51:19;;;;;;;13.93;3.30;;;9.90;99.90;;;;;;4991271;28;20636;-73
2023/12/11 08:53:48;;;;;;;10.13;2.73;;;9.90;99.90;;;;;;4992130;28;20998;-73
2023/12/11 08:56:14;;;;;;;11.40;3.10;;;9.90;99.90;;;;;;4990520;28;20512;-73
2023/12/11 08:58:40;;;;;;;16.47;4.70;;;9.90;99.90;;;;;;4992071;28;20466;-73
2023/12/11 09:01:06;;;;;;;9.40;3.63;;;9.90;99.90;;;;;;4989366;28;20435;-73
2023/12/11 09:03:31;;;;;;;11.30;2.80;;;9.80;99.90;;;;;;4994348;28;20634;-73
2023/12/11 09:05:57;;;;;;;11.57;3.17;;;9.80;99.90;;;;;;4989847;28;20458;-73
2023/12/11 09:08:23;;;;;;;8.77;2.60;;;9.80;99.90;;;;;;4991862;28;21197;-73
2023/12/11 09:10:49;;;;;;;9.40;2.63;;;9.80;99.90;;;;;;4991922;28;20183;-73
2023/12/11 09:13:15;;;;;;;6.70;2.47;;;9.80;99.90;;;;;;4990817;28;20195;-73
2023/12/11 09:15:40;;;;;;;10.00;2.23;;;9.80;99.90;;;;;;4991816;28;20485;-73
2023/12/11 09:18:08;;;;;;;13.27;2.73;;;9.80;99.90;;;;;;4991587;28;20232;-73
2023/12/11 09:20:34;;;;;;;14.67;3.83;;;9.80;99.90;;;;;;4993055;28;20199;-73
2023/12/11 09:23:00;;;;;;;13.20;2.90;;;9.80;99.90;;;;;;4991832;28;20435;-73
2023/12/11 09:25:26;;;;;;;7.03;2.57;;;9.80;99.90;;;;;;4992602;28;20544;-73
2023/12/11 09:27:51;;;;;;;9.97;3.30;;;9.80;99.90;;;;;;4992478;28;20633;-73
2023/12/11 09:30:17;;;;;;;9.77;3.03;;;9.90;99.90;;;;;;4991734;28;20184;-73
2023/12/11 09:32:44;;;;;;;10.10;3.93;;;9.80;99.90;;;;;;4993276;28;20207;-73
2023/12/11 09:35:10;;;;;;;10.97;2.80;;;9.90;99.90;;;;;;4991268;28;20210;-73
2023/12/11 09:37:36;;;;;;;9.70;2.63;;;9.90;99.90;;;;;;4993475;28;20481;-73
2023/12/11 09:40:02;;;;;;;10.63;3.03;;;9.90;99.90;;;;;;4991008;28;20428;-73
2023/12/11 09:42:29;;;;;;;11.23;3.53;;;9.90;99.90;;;;;;4993435;28;20213;-73
2023/12/11 09:44:55;;;;;;;9.33;2.77;;;9.90;99.90;;;;;;4992769;28;20434;-72
2023/12/11 09:47:26;;;;;;;8.47;3.20;;;9.90;99.90;;;;;;4991751;28;20434;-73
2023/12/11 09:49:52;;;;;;;7.37;2.73;;;9.90;99.90;;;;;;4991963;28;20433;-73
2023/12/11 09:52:18;;;;;;;12.80;3.13;;;9.90;99.90;;;;;;4989935;28;20925;-73
2023/12/11 09:54:44;;;;;;;9.67;3.00;;;9.90;99.90;;;;;;4992347;28;20461;-73
2023/12/11 09:57:13;;;;;;;8.17;2.47;;;10.00;99.90;;;;;;4991117;28;20558;-73
2023/12/11 09:59:40;;;;;;;7.10;2.90;;;10.00;99.90;;;;;;4993778;28;20173;-72
2023/12/11 10:02:14;;;;;;;9.10;4.97;;;10.00;99.90;;;;;;4991137;28;20477;-72
2023/12/11 10:04:59;;;;;;;6.13;3.10;;;10.00;99.90;;;;;;4994093;28;20434;-73
2023/12/11 10:07:25;;;;;;;7.33;2.90;;;10.00;99.90;;;;;;4993660;28;20430;-73
2023/12/11 10:09:51;;;;;;;6.70;3.30;;;10.00;99.90;;;;;;4992220;28;20426;-73
2023/12/11 10:12:16;;;;;;;14.40;3.17;;;10.00;99.90;;;;;;5006233;28;20180;-73
2023/12/11 10:14:42;;;;;;;11.63;3.30;;;10.00;99.90;;;;;;4996811;28;20691;-72
2023/12/11 10:17:16;;;;;;;6.43;3.53;;;9.90;99.90;;;;;;4995074;28;20215;-73
2023/12/11 10:19:42;;;;;;;10.07;4.03;;;9.90;99.90;;;;;;5094392;27;20206;-73
2023/12/11 10:22:24;;;;;;;10.33;3.60;;;9.90;99.90;;;;;;4995319;28;20944;-73
2023/12/11 10:24:49;;;;;;;7.53;3.27;;;9.90;99.90;;;;;;4994735;28;20175;-73
2023/12/11 10:27:22;;;;;;;10.80;3.33;;;9.90;99.90;;;;;;4993626;28;20498;-73
2023/12/11 10:29:47;;;;;;;10.60;3.07;;;9.90;99.90;;;;;;4996181;28;20659;-73
2023/12/11 10:32:13;;;;;;;8.50;3.30;;;9.90;99.90;;;;;;4994115;28;20446;-73
2023/12/11 10:34:41;;;;;;;9.50;3.67;;;9.80;99.90;;;;;;4996983;28;20192;-73
2023/12/11 10:37:08;;;;;;;6.83;3.70;;;9.80;99.90;;;;;;4994059;28;20215;-73
2023/12/11 10:39:34;;;;;;;9.07;4.00;;;9.80;99.90;;;;;;4997103;28;20435;-73
2023/12/11 10:42:14;;;;;;;9.20;3.90;;;9.80;99.90;;;;;;4993608;28;20430;-73
2023/12/11 10:44:40;;;;;;;8.43;3.47;;;9.90;99.90;;;;;;4996557;28;20654;-72
2023/12/11 10:47:07;;;;;;;7.70;3.30;;;9.90;99.90;;;;;;4995360;28;20427;-73
2023/12/11 10:49:33;;;;;;;8.07;4.07;;;9.90;99.90;;;;;;4996185;28;20431;-73
2023/12/11 10:52:02;;;;;;;12.70;3.77;;;9.90;99.90;;;;;;4993893;28;20470;-73
2023/12/11 10:54:28;;;;;;;14.40;4.73;;;9.90;99.90;;;;;;4996086;28;20435;-73
2023/12/11 10:56:56;;;;;;;5.47;3.27;;;9.90;99.90;;;;;;4995443;28;20474;-73
2023/12/11 10:59:22;;;;;;;12.97;3.83;;;9.90;99.90;;;;;;4996048;28;20423;-73
2023/12/11 11:01:50;;;;;;;5.53;2.87;;;9.90;99.90;;;;;;4994641;28;20434;-72
2023/12/11 11:04:18;;;;;;;5.13;2.90;;;9.90;99.90;;;;;;4996786;28;20460;-73
2023/12/11 11:07:15;;;;;;;7.97;3.00;;;9.90;99.90;;;;;;4996788;28;20437;-73
2023/12/11 11:09:54;;;;;;;6.10;3.43;;;9.90;99.90;;;;;;5063169;28;21219;-73
2023/12/11 11:12:27;;;;;;;7.10;2.90;;;9.90;99.90;;;;;;4995460;28;20953;-73
2023/12/11 11:14:53;;;;;;;8.27;2.53;;;9.90;99.90;;;;;;4994417;28;20430;-73
2023/12/11 11:17:19;;;;;;;9.00;3.23;;;9.90;99.90;;;;;;4994530;28;20822;-73
2023/12/11 11:20:12;;;;;;;7.03;2.80;;;9.90;99.90;;;;;;4995784;28;20438;-72
2023/12/11 11:22:38;;;;;;;5.80;3.40;;;9.80;99.90;;;;;;4998193;28;21119;-73
2023/12/11 11:25:29;;;;;;;8.00;2.60;;;9.90;99.90;;;;;;4994487;28;20458;-73
2023/12/11 11:27:55;;;;;;;7.23;2.57;;;9.90;99.90;;;;;;4999765;28;20438;-73
2023/12/11 11:30:45;;;;;;;5.00;2.33;;;9.80;99.90;;;;;;4996463;28;20441;-73
2023/12/11 11:33:12;;;;;;;5.97;2.00;;;9.80;99.90;;;;;;4995111;28;20953;-73
2023/12/11 11:35:46;;;;;;;4.33;2.20;;;9.80;99.90;;;;;;4997241;28;20513;-72
2023/12/11 11:38:50;;;;;;;4.80;1.80;;;9.80;99.90;;;;;;4992823;28;20463;-73
2023/12/11 11:41:27;;;;;;;8.23;2.30;;;9.80;99.90;;;;;;4994931;28;20949;-73
2023/12/11 11:44:07;;;;;;;4.90;1.70;;;9.80;99.90;;;;;;4994359;28;20453;-73
2023/12/11 11:46:52;;;;;;;5.83;1.73;;;9.80;99.90;;;;;;4995960;28;20461;-73
2023/12/11 11:49:26;;;;;;;5.57;1.57;;;9.90;99.90;;;;;;4994401;28;20824;-73
2023/12/11 11:51:52;;;;;;;2.70;1.27;;;9.80;99.90;;;;;;4992328;28;20448;-73
2023/12/11 11:54:23;;;;;;;3.57;1.50;;;9.80;99.90;;;;;;4995264;28;20430;-73
2023/12/11 11:56:49;;;;;;;3.50;1.50;;;9.80;99.90;;;;;;4994695;28;20490;-73
2023/12/11 11:59:15;;;;;;;4.20;1.87;;;9.80;99.90;;;;;;4993604;28;20431;-73
2023/12/11 12:01:58;;;;;;;3.57;1.63;;;9.70;99.90;;;;;;4996742;28;20184;-73
2023/12/11 12:04:34;;;;;;;4.90;1.50;;;9.80;99.90;;;;;;4999023;28;20232;-72
2023/12/11 12:07:04;;;;;;;4.07;1.60;;;9.80;99.90;;;;;;4994550;28;20461;-73
2023/12/11 12:09:31;;;;;;;3.60;1.70;;;9.80;99.90;;;;;;4997177;28;20488;-73
2023/12/11 12:11:58;;;;;;;3.47;1.87;;;9.80;99.90;;;;;;4995280;28;21294;-72
2023/12/11 12:14:25;;;;;;;3.90;1.83;;;9.80;99.90;;;;;;4996195;28;20491;-73
2023/12/11 12:16:51;;;;;;;2.83;1.47;;;9.70;99.90;;;;;;4994348;28;20478;-73
2023/12/11 12:19:17;;;;;;;3.70;1.30;;;9.70;99.90;;;;;;4993829;28;20479;-73
2023/12/11 12:21:56;;;;;;;2.10;1.40;;;9.70;99.90;;;;;;4998701;28;20179;-73
2023/12/11 12:24:22;;;;;;;2.23;1.43;;;9.70;99.90;;;;;;4996688;28;20431;-73
2023/12/11 12:26:54;;;;;;;3.17;1.80;;;9.80;99.90;;;;;;4995032;28;20461;-73
2023/12/11 12:29:20;;;;;;;2.37;1.10;;;9.70;99.90;;;;;;4992409;28;20539;-73
2023/12/11 12:31:46;;;;;;;3.73;1.37;;;9.70;99.90;;;;;;4992824;28;20479;-73
2023/12/11 12:34:16;;;;;;;2.87;1.70;;;9.70;99.90;;;;;;4995422;28;20771;-73
2023/12/11 12:36:43;;;;;;;5.80;2.10;;;9.70;99.90;;;;;;4996328;28;20934;-73
2023/12/11 12:39:17;;;;;;;4.43;1.93;;;9.60;99.90;;;;;;4991952;28;20430;-73
2023/12/11 12:41:43;;;;;;;5.43;2.60;;;9.70;99.90;;;;;;4984347;28;21120;-73
2023/12/11 12:44:08;;;;;;;3.53;2.00;;;9.70;99.90;;;;;;4988997;28;20458;-72